Terminal Aerodrome Forecast
Issued by NWS

Home | Current Version | Previous Version | Graphics & Text | Print | Product List | Glossary On
Versions: 1 2 3 4 5 6 7 8 9 10 11 12 13 14 15 16 17 18 19 20
932
FTUS43 KFGF 201013 AAB
TAFBJI
TAF AMD
KBJI 201013Z 2010/2106 14010KT P6SM VCSH BKN110 WS020/18045KT
     FM201300 15011KT P6SM VCSH OVC100
      TEMPO 2013/2017 5SM -SHRA
     FM201700 16009KT P6SM VCSH OVC050
     FM202200 23011KT P6SM BKN040
     FM210100 26010KT P6SM BKN040=

USA.gov is the U.S. government's official web portal to all federal, state and local government web resources and services.